Weather at Hamilton Municipal Airport

Public forecast

Using degrees Fahrenheit for public forecast. Weather courtesy of forecast.io.

Current aviation weather report (METAR) for Hamilton Municipal Airport

Report is more than 6 hours old.

2022/11/14 15:35 (retrieved 2 years ago)

KVGC 141535Z AUTO 31009G15KT 7SM OVC040 00/M06 A3032 RMK AO2

Closest aviation forecast (TAF) to Hamilton Municipal Airport

Forecast is more than 12 hours old.

Closest forecast is Griffiss International Airport, 24.4 nm (45.1 km) NNE.

2023/02/22 20:33 Ammendment (retrieved 1 year ago)

TAF AMD KRME 221931Z 2220/2318 15004KT P6SM OVC035 TEMPO 2221/2222 4SM -SHSN BR OVC015 FM222200 09008KT 1SM -SN BR OVC015 FM230000 10013KT 1/2SM SN OVC007 FM230300 10008KT 4SM -FZRA BR OVC008 FM231000 10008KT P6SM OVC008